Time;durP1;ratioP1;P1;durP2;ratioP2;P2;SDS_P1;SDS_P2;PMS_P1;PMS_P2;Temp;Humidity;BMP_temperature;BMP_pressure;BME280_temperature;BME280_humidity;BME280_pressure;Samples;Min_cycle;Max_cycle;Signal;HPM_P1;HPM_P2
2021/05/18 00:01:41;;;;;;;3.05;2.70;;;;;;;9.30;97.13;99901.13;4903169;29;20046;-80
2021/05/18 00:04:08;;;;;;;3.25;2.90;;;;;;;9.30;96.80;99904.63;4918753;29;20412;-83
2021/05/18 00:06:36;;;;;;;3.47;3.17;;;;;;;9.25;96.78;99896.00;4918888;29;20168;-83
2021/05/18 00:11:50;;;;;;;3.22;2.50;;;;;;;9.17;96.08;99895.34;4935004;29;20043;-82
2021/05/18 00:14:23;;;;;;;3.00;2.70;;;;;;;9.01;96.81;99901.94;4935061;29;20043;-83
2021/05/18 00:16:50;;;;;;;3.30;3.00;;;;;;;8.87;99.17;99901.41;4919185;29;20040;-83
2021/05/18 00:19:17;;;;;;;4.10;2.58;;;;;;;8.85;98.66;99901.47;4934103;29;20393;-84
2021/05/18 00:21:45;;;;;;;3.47;2.97;;;;;;;8.84;97.97;99912.03;4924756;29;20517;-82
2021/05/18 00:24:12;;;;;;;3.15;2.85;;;;;;;8.76;98.48;99900.84;4907066;29;20051;-84
2021/05/18 00:26:39;;;;;;;3.42;3.05;;;;;;;8.72;98.71;99911.41;4926961;29;20134;-83
2021/05/18 00:29:06;;;;;;;3.90;3.38;;;;;;;8.74;98.19;99903.47;4935944;29;20047;-83
2021/05/18 00:31:34;;;;;;;3.50;3.20;;;;;;;8.73;98.36;99907.03;4917542;29;20106;-83
2021/05/18 00:34:01;;;;;;;4.20;3.17;;;;;;;8.74;98.02;99909.63;4922500;29;20066;-82
2021/05/18 00:36:28;;;;;;;4.10;3.08;;;;;;;8.77;96.99;99908.69;4917937;29;20224;-84
2021/05/18 00:38:55;;;;;;;3.75;3.45;;;;;;;8.67;96.66;99915.09;4922414;29;20043;-82
2021/05/18 00:41:21;;;;;;;3.90;3.60;;;;;;;8.64;96.69;99913.38;4902381;29;20039;-83
2021/05/18 00:43:48;;;;;;;3.63;3.00;;;;;;;8.55;97.23;99918.88;4920351;29;20505;-84
2021/05/18 00:46:15;;;;;;;3.83;3.40;;;;;;;8.56;96.75;99920.59;4906142;29;20102;-83
2021/05/18 00:48:56;;;;;;;4.00;3.38;;;;;;;8.56;95.99;99915.34;4934784;29;20311;-83
2021/05/18 00:51:23;;;;;;;3.53;2.95;;;;;;;8.51;95.99;99917.22;4921279;29;20040;-83
2021/05/18 00:53:51;;;;;;;3.40;3.10;;;;;;;8.39;98.22;99918.38;4923470;29;20043;-82
2021/05/18 00:58:46;;;;;;;3.63;3.03;;;;;;;8.15;97.79;99919.75;4919439;29;20065;-82
2021/05/18 01:01:18;;;;;;;3.15;2.85;;;;;;;8.04;98.20;99923.53;4904228;29;20067;-83
2021/05/18 01:03:47;;;;;;;3.90;3.23;;;;;;;7.91;98.81;99930.84;4935030;29;20042;-82
2021/05/18 01:06:33;;;;;;;3.50;2.90;;;;;;;7.95;98.01;99921.97;4919714;29;20050;-82
2021/05/18 01:09:08;;;;;;;3.10;2.83;;;;;;;7.93;98.04;99934.28;4921538;29;20057;-82
2021/05/18 01:11:35;;;;;;;3.45;3.15;;;;;;;7.87;97.94;99924.75;4935871;29;22006;-83
2021/05/18 01:14:08;;;;;;;3.23;2.93;;;;;;;7.87;98.04;99939.69;4919247;29;20047;-82
2021/05/18 01:16:37;;;;;;;3.73;3.27;;;;;;;7.74;98.52;99931.19;4925559;28;20038;-83
2021/05/18 01:19:05;;;;;;;3.60;3.20;;;;;;;7.70;98.52;99942.66;4935035;29;20051;-83
2021/05/18 01:21:32;;;;;;;6.20;3.40;;;;;;;7.63;98.17;99946.28;4935094;29;20506;-82
2021/05/18 01:23:59;;;;;;;3.63;2.93;;;;;;;7.61;98.45;99943.69;4919357;29;20051;-83
2021/05/18 01:26:28;;;;;;;3.43;3.10;;;;;;;7.48;100.00;99950.13;4907102;29;20039;-83
2021/05/18 01:28:55;;;;;;;3.63;2.93;;;;;;;7.44;99.75;99951.06;4918028;28;20413;-84
2021/05/18 01:31:24;;;;;;;3.70;2.83;;;;;;;7.43;99.46;99951.94;4930611;28;20612;-84
2021/05/18 01:33:52;;;;;;;4.77;3.17;;;;;;;7.45;99.57;99962.44;4937983;29;20505;-82
2021/05/18 01:36:21;;;;;;;3.87;3.47;;;;;;;7.52;97.79;99953.53;4918961;29;20039;-82
2021/05/18 01:39:06;;;;;;;3.77;3.30;;;;;;;7.52;97.63;99956.16;4934721;29;20047;-83
2021/05/18 01:44:19;;;;;;;3.80;3.00;;;;;;;7.41;98.53;99960.78;4921167;29;20142;-82
2021/05/18 01:46:46;;;;;;;3.87;3.57;;;;;;;7.43;98.27;99962.47;4934442;29;20072;-83
2021/05/18 01:49:16;;;;;;;4.03;3.60;;;;;;;7.31;99.52;99966.19;4906752;29;20047;-83
2021/05/18 01:51:51;;;;;;;3.70;3.40;;;;;;;7.40;99.48;99964.25;4943852;29;20043;-82
2021/05/18 01:54:24;;;;;;;3.77;3.23;;;;;;;7.38;99.08;99959.03;4938642;29;20083;-83
2021/05/18 01:59:21;;;;;;;3.80;3.30;;;;;;;7.25;99.58;99968.94;4938214;29;20059;-83
2021/05/18 02:01:51;;;;;;;3.60;3.30;;;;;;;7.14;99.23;99972.63;4938235;29;20493;-82
2021/05/18 02:04:24;;;;;;;4.57;3.37;;;;;;;7.10;99.22;99971.81;4922007;29;20449;-82
2021/05/18 02:06:52;;;;;;;3.95;3.40;;;;;;;7.01;99.22;99979.84;4913562;29;20043;-83
2021/05/18 02:09:19;;;;;;;3.70;3.10;;;;;;;6.90;100.00;99981.81;4938040;29;20051;-83
2021/05/18 02:11:47;;;;;;;3.40;3.10;;;;;;;6.86;100.00;99991.47;4923264;29;20065;-83
2021/05/18 02:14:24;;;;;;;4.00;3.47;;;;;;;6.93;100.00;99992.25;4942021;29;20070;-83
2021/05/18 02:16:55;;;;;;;4.07;3.50;;;;;;;6.93;100.00;99995.75;4924854;29;20514;-84
2021/05/18 02:19:44;;;;;;;4.73;3.87;;;;;;;6.90;100.00;99995.81;4923837;29;20054;-83
2021/05/18 02:24:36;;;;;;;4.97;4.30;;;;;;;7.01;100.00;100000.88;4932790;29;20062;-83
2021/05/18 02:25:06;;;;;;;4.03;3.40;;;;;;;7.04;100.00;100003.44;4947946;29;20050;-82
2021/05/18 02:27:32;;;;;;;4.10;3.70;;;;;;;7.12;100.00;99995.44;4919813;29;20047;-83
2021/05/18 02:29:59;;;;;;;4.60;4.10;;;;;;;7.17;100.00;100006.72;4923417;29;20508;-84
2021/05/18 02:32:27;;;;;;;4.40;3.80;;;;;;;7.20;100.00;99999.66;4923451;29;20138;-83
2021/05/18 02:34:54;;;;;;;3.80;3.50;;;;;;;7.30;100.00;99995.09;4923345;29;20051;-82
2021/05/18 02:37:21;;;;;;;3.90;3.50;;;;;;;7.23;100.00;100002.25;4923113;29;20053;-83
2021/05/18 02:39:49;;;;;;;5.50;3.63;;;;;;;7.05;100.00;100010.41;4939204;29;20508;-82
2021/05/18 02:42:16;;;;;;;5.40;3.60;;;;;;;7.03;100.00;100012.22;4923338;29;20035;-83
2021/05/18 02:44:47;;;;;;;4.10;3.20;;;;;;;7.12;99.23;100012.06;4935798;29;20044;-81
2021/05/18 02:49:59;;;;;;;4.37;3.40;;;;;;;6.95;100.00;100019.34;4924881;29;20057;-82
2021/05/18 02:52:26;;;;;;;4.37;3.47;;;;;;;6.90;99.35;100026.44;4904156;29;20035;-83
2021/05/18 02:54:55;;;;;;;6.90;4.80;;;;;;;6.76;100.00;100018.78;4912141;29;20042;-82
2021/05/18 02:57:33;;;;;;;6.50;3.30;;;;;;;6.80;99.64;100022.19;4917171;28;20530;-82
2021/05/18 03:00:03;;;;;;;4.10;3.63;;;;;;;6.67;100.00;100016.28;4904920;29;20044;-83
2021/05/18 03:02:30;;;;;;;4.17;3.77;;;;;;;6.73;99.88;100016.19;4935004;29;20063;-83
2021/05/18 03:04:57;;;;;;;4.10;3.57;;;;;;;6.71;99.40;100017.97;4919302;29;20058;-83
2021/05/18 03:07:23;;;;;;;4.00;3.47;;;;;;;6.54;100.00;100022.59;4918762;29;20128;-83
2021/05/18 03:09:50;;;;;;;3.90;3.50;;;;;;;6.52;100.00;100022.63;4930128;29;20051;-82
2021/05/18 03:12:17;;;;;;;5.93;3.70;;;;;;;6.56;100.00;100012.94;4907134;29;20054;-82
2021/05/18 03:14:43;;;;;;;3.90;3.33;;;;;;;6.59;99.69;100026.91;4938481;29;20432;-82
2021/05/18 03:17:10;;;;;;;3.50;3.20;;;;;;;6.55;100.00;100030.44;4938572;29;20051;-83
2021/05/18 03:19:37;;;;;;;5.37;3.73;;;;;;;6.57;100.00;100031.31;4922851;29;20075;-82
2021/05/18 03:22:03;;;;;;;3.90;3.50;;;;;;;6.56;100.00;100031.31;4922513;29;20069;-81
2021/05/18 03:24:30;;;;;;;4.47;3.50;;;;;;;6.63;99.61;100036.44;4938398;29;20054;-82
2021/05/18 03:26:57;;;;;;;5.23;3.70;;;;;;;6.52;100.00;100041.00;4906512;29;20468;-83
2021/05/18 03:29:31;;;;;;;7.50;4.10;;;;;;;6.45;100.00;100041.97;4922312;29;20054;-82
2021/05/18 03:34:43;;;;;;;5.33;3.83;;;;;;;6.43;99.15;100041.97;4923994;29;20048;-82
2021/05/18 03:40:14;;;;;;;4.10;3.33;;;;;;;6.27;100.00;100040.44;4923100;29;20053;-82
2021/05/18 03:42:47;;;;;;;4.67;3.70;;;;;;;6.35;100.00;100035.97;4934200;29;20135;-82
2021/05/18 03:45:21;;;;;;;5.10;3.60;;;;;;;6.31;100.00;100049.16;4935636;29;20126;-83
2021/05/18 03:53:34;;;;;;;4.37;3.87;;;;;;;6.32;100.00;100046.50;4923568;29;20539;-84
2021/05/18 03:59:03;;;;;;;4.03;3.30;;;;;;;6.46;98.87;100051.56;4952488;29;20050;-81
2021/05/18 04:18:10;;;;;;;4.83;3.90;;;;;;;6.59;100.00;100073.28;4919651;29;20059;-82
2021/05/18 04:23:47;;;;;;;4.70;4.30;;;;;;;6.83;100.00;100080.81;4904733;29;20078;-82
2021/05/18 04:40:51;;;;;;;5.50;4.93;;;;;;;7.43;100.00;100077.22;4940535;28;20047;-82
2021/05/18 04:49:18;;;;;;;6.13;4.87;;;;;;;7.79;100.00;100092.34;4922799;29;20485;-83
2021/05/18 04:59:42;;;;;;;6.43;4.93;;;;;;;8.60;100.00;100093.41;4941387;29;20321;-81
2021/05/18 05:07:30;;;;;;;5.10;4.40;;;;;;;9.59;100.00;100090.22;4930563;29;20047;-82
2021/05/18 05:09:57;;;;;;;5.28;3.95;;;;;;;10.00;100.00;100089.09;4934103;29;20416;-82
2021/05/18 05:14:51;;;;;;;6.55;4.05;;;;;;;10.33;100.00;100097.88;4918680;29;20047;-81
2021/05/18 05:17:17;;;;;;;4.75;4.22;;;;;;;10.50;100.00;100097.41;4907271;29;20056;-83
2021/05/18 05:19:44;;;;;;;4.68;3.78;;;;;;;10.67;100.00;100099.56;4902504;29;20047;-83
2021/05/18 05:22:13;;;;;;;4.10;3.70;;;;;;;10.75;100.00;100096.69;4919310;29;20125;-83
2021/05/18 05:24:41;;;;;;;5.95;4.22;;;;;;;10.91;99.59;100101.44;4935296;29;20047;-83
2021/05/18 05:27:08;;;;;;;4.28;3.33;;;;;;;11.02;99.85;100105.56;4919534;29;20051;-82
2021/05/18 05:29:54;;;;;;;4.07;3.67;;;;;;;11.24;100.00;100107.47;4933408;29;20044;-82
2021/05/18 05:32:22;;;;;;;4.75;3.42;;;;;;;11.34;98.43;100112.47;4935025;29;20055;-83
2021/05/18 05:34:48;;;;;;;4.07;3.20;;;;;;;11.40;97.81;100115.78;4944428;29;20452;-81
2021/05/18 05:37:15;;;;;;;6.40;3.60;;;;;;;11.67;96.19;100114.00;4919032;29;20362;-82
2021/05/18 05:39:42;;;;;;;3.70;3.20;;;;;;;11.88;92.61;100120.38;4918645;29;20047;-84
2021/05/18 05:42:09;;;;;;;4.00;3.10;;;;;;;12.07;93.84;100110.88;4952516;29;20047;-84
2021/05/18 05:44:36;;;;;;;4.60;3.05;;;;;;;12.25;92.93;100114.66;4920176;29;20054;-82
2021/05/18 05:47:02;;;;;;;4.57;3.15;;;;;;;12.46;90.97;100117.44;4939038;28;20526;-83
2021/05/18 05:49:29;;;;;;;3.97;3.30;;;;;;;12.54;89.80;100115.38;4957707;29;20054;-82
2021/05/18 05:51:56;;;;;;;5.25;4.00;;;;;;;12.56;90.07;100125.00;4927626;29;20059;-79
2021/05/18 05:54:23;;;;;;;4.32;3.50;;;;;;;12.55;89.45;100122.41;4919247;29;20047;-83
2021/05/18 05:56:50;;;;;;;7.35;3.47;;;;;;;12.49;89.96;100131.44;4940498;29;20044;-81
2021/05/18 05:59:19;;;;;;;5.63;3.15;;;;;;;12.54;89.60;100136.59;5025227;23;20036;-80
2021/05/18 06:01:47;;;;;;;4.13;3.42;;;;;;;12.51;88.59;100137.53;4915681;29;20043;-79
2021/05/18 06:04:13;;;;;;;4.45;3.80;;;;;;;12.50;88.69;100142.91;4931114;29;20043;-79
2021/05/18 06:06:40;;;;;;;4.53;3.53;;;;;;;12.44;87.75;100138.69;4944278;28;20042;-79
2021/05/18 06:09:08;;;;;;;5.45;3.40;;;;;;;12.48;88.33;100137.66;4949846;28;20170;-79
2021/05/18 06:17:19;;;;;;;4.15;3.53;;;;;;;12.48;88.10;100152.69;4975087;28;20050;-79
2021/05/18 06:42:01;;;;;;;5.50;4.30;;;;;;;12.31;90.64;100185.94;4991712;28;20038;-80
2021/05/18 06:49:58;;;;;;;4.68;4.07;;;;;;;12.38;87.98;100190.13;4981442;28;20047;-80
2021/05/18 06:52:25;;;;;;;5.10;3.72;;;;;;;12.51;88.13;100193.19;4990363;28;20046;-80
2021/05/18 06:54:51;;;;;;;5.28;3.78;;;;;;;12.58;89.44;100196.47;4955807;28;20043;-81
2021/05/18 06:57:40;;;;;;;6.32;4.30;;;;;;;12.59;87.51;100192.91;4961053;28;20793;-79
2021/05/18 07:00:42;;;;;;;5.45;3.95;;;;;;;12.66;85.17;100195.28;4948780;28;20054;-81
2021/05/18 07:03:00;;;;;;;4.35;3.95;;;;;;;12.82;86.99;100202.69;4979686;28;20050;-81
2021/05/18 07:05:33;;;;;;;5.63;3.92;;;;;;;12.96;86.60;100203.91;4962333;28;20062;-81
2021/05/18 07:10:53;;;;;;;4.60;3.40;;;;;;;12.90;85.65;100205.91;4964887;28;20050;-80
2021/05/18 07:13:20;;;;;;;6.47;3.50;;;;;;;13.02;85.37;100207.22;4976933;28;20064;-81
2021/05/18 07:15:47;;;;;;;5.28;4.00;;;;;;;12.94;84.02;100218.97;4961382;28;20061;-80
2021/05/18 07:18:14;;;;;;;4.65;3.72;;;;;;;13.07;83.84;100216.75;4973247;28;20043;-80
2021/05/18 07:20:40;;;;;;;4.30;2.95;;;;;;;13.19;84.18;100218.06;4966250;28;20076;-81
2021/05/18 07:23:13;;;;;;;4.90;3.78;;;;;;;13.21;83.63;100222.44;4949695;28;20066;-81
2021/05/18 07:25:40;;;;;;;6.30;3.33;;;;;;;13.32;83.69;100222.00;4969374;28;20065;-82
2021/05/18 07:28:07;;;;;;;3.50;3.15;;;;;;;13.36;83.90;100228.06;4973497;28;20113;-81
2021/05/18 07:30:35;;;;;;;4.68;3.53;;;;;;;13.54;84.30;100224.72;4950047;28;20500;-82
2021/05/18 07:33:02;;;;;;;5.28;3.70;;;;;;;13.76;83.00;100233.53;4954359;28;20043;-82
2021/05/18 07:35:29;;;;;;;5.05;3.70;;;;;;;14.05;81.55;100224.38;4965608;28;20039;-81
2021/05/18 07:37:56;;;;;;;5.07;3.60;;;;;;;14.44;81.68;100222.72;4974800;28;20038;-81
2021/05/18 07:40:23;;;;;;;4.45;3.75;;;;;;;14.59;76.65;100228.28;4972904;28;20042;-81
2021/05/18 07:42:52;;;;;;;4.28;3.50;;;;;;;14.74;77.38;100231.22;4971749;28;20105;-81
2021/05/18 07:45:22;;;;;;;4.63;3.10;;;;;;;14.66;75.85;100234.19;4965244;28;20064;-81
2021/05/18 07:47:49;;;;;;;4.57;3.42;;;;;;;14.84;75.23;100233.38;4966286;28;20062;-82
2021/05/18 07:50:22;;;;;;;4.68;3.50;;;;;;;14.84;76.11;100229.84;4966531;28;20038;-82
2021/05/18 08:06:36;;;;;;;4.63;3.83;;;;;;;13.75;80.13;100245.06;4963530;28;20419;-80
2021/05/18 08:09:03;;;;;;;6.03;3.97;;;;;;;13.62;79.12;100253.56;4968316;28;20058;-80
2021/05/18 08:11:29;;;;;;;4.07;2.80;;;;;;;13.58;81.13;100255.50;4954655;28;20129;-80
2021/05/18 08:14:01;;;;;;;5.53;3.72;;;;;;;13.50;80.20;100262.88;4968312;28;20118;-80
2021/05/18 08:16:54;;;;;;;6.35;4.43;;;;;;;13.53;82.00;100262.75;4934082;28;20058;-79
2021/05/18 08:19:50;;;;;;;6.75;4.40;;;;;;;13.68;81.00;100263.97;4965977;28;20042;-80
2021/05/18 08:22:37;;;;;;;6.15;4.50;;;;;;;13.61;81.08;100267.78;4964040;28;20097;-79
2021/05/18 08:58:48;;;;;;;6.97;5.63;;;;;;;13.65;80.93;100288.84;4972716;28;20046;-79
2021/05/18 10:26:44;;;;;;;;;;;;;;;14.08;90.63;100325.19;4973175;28;20035;-82
2021/05/18 10:34:50;;;;;;;4.68;3.63;;;;;;;14.58;90.13;100316.94;4974724;28;20038;-81
2021/05/18 10:37:28;;;;;;;4.45;3.95;;;;;;;14.70;84.79;100315.53;4941219;28;20463;-80
2021/05/18 10:40:26;;;;;;;4.32;3.60;;;;;;;14.96;86.13;100317.06;4950686;28;20047;-81
2021/05/18 10:43:19;;;;;;;3.58;3.28;;;;;;;14.77;89.78;100314.34;4966426;28;20404;-80
2021/05/18 10:46:00;;;;;;;4.63;3.70;;;;;;;14.55;83.98;100319.75;4929898;28;20043;-80
2021/05/18 10:48:34;;;;;;;5.43;4.20;;;;;;;14.84;87.75;100326.47;4973196;28;20062;-82
2021/05/18 10:51:26;;;;;;;6.13;4.22;;;;;;;15.52;90.11;100318.13;4973129;28;20166;-80
2021/05/18 10:54:22;;;;;;;6.53;4.55;;;;;;;15.96;79.31;100316.91;4968453;28;20461;-79
2021/05/18 10:59:55;;;;;;;6.43;4.50;;;;;;;16.20;84.42;100322.84;4971060;28;20050;-80
2021/05/18 11:02:25;;;;;;;4.90;3.33;;;;;;;16.45;81.33;100324.31;4948066;28;20051;-81
2021/05/18 11:05:05;;;;;;;4.53;3.35;;;;;;;16.09;78.36;100319.88;4977253;28;20516;-79
2021/05/18 11:07:44;;;;;;;6.22;3.42;;;;;;;16.18;81.32;100324.75;4945613;28;20049;-79
2021/05/18 11:10:18;;;;;;;5.80;3.67;;;;;;;16.60;80.48;100324.41;4976541;28;20052;-79
2021/05/18 11:12:47;;;;;;;7.18;4.47;;;;;;;16.45;80.14;100319.84;4958204;28;20094;-79
2021/05/18 11:15:18;;;;;;;5.35;3.00;;;;;;;16.80;75.58;100328.75;4954956;28;20051;-80
2021/05/18 11:17:47;;;;;;;5.75;3.20;;;;;;;16.65;72.06;100331.28;4975918;28;20046;-80
2021/05/18 11:26:01;;;;;;;3.30;2.45;;;;;;;16.81;72.61;100326.94;4968654;28;20042;-80
2021/05/18 11:28:49;;;;;;;6.05;2.60;;;;;;;16.10;66.77;100336.72;4960650;28;20038;-80
2021/05/18 11:31:20;;;;;;;5.03;3.10;;;;;;;16.81;70.36;100346.47;4943747;28;20046;-80
2021/05/18 11:33:53;;;;;;;4.97;2.95;;;;;;;17.14;72.53;100345.69;4957947;28;20047;-79
2021/05/18 11:36:21;;;;;;;4.75;2.80;;;;;;;17.36;71.41;100334.72;4953639;28;20093;-79
2021/05/18 11:38:49;;;;;;;3.45;2.45;;;;;;;17.53;70.04;100341.84;4950241;28;20043;-80
2021/05/18 11:41:21;;;;;;;3.13;2.60;;;;;;;17.81;65.78;100338.53;4988020;28;20057;-80
2021/05/18 11:43:49;;;;;;;3.45;2.90;;;;;;;17.94;64.47;100353.81;4956422;28;20066;-80
2021/05/18 11:46:16;;;;;;;3.85;2.47;;;;;;;17.60;63.64;100352.09;4963730;28;20042;-80
2021/05/18 11:48:57;;;;;;;4.15;2.85;;;;;;;17.16;62.51;100354.50;4948343;28;20057;-79
2021/05/18 11:51:23;;;;;;;3.08;2.53;;;;;;;16.43;60.12;100352.88;4978892;28;20483;-81
2021/05/18 11:53:52;;;;;;;3.47;1.92;;;;;;;16.53;64.16;100341.66;4965614;28;20106;-82
2021/05/18 11:56:26;;;;;;;3.90;2.30;;;;;;;16.55;59.39;100339.75;4974441;28;20082;-81
2021/05/18 11:59:12;;;;;;;2.20;1.52;;;;;;;16.37;57.01;100339.81;4959646;28;20515;-81
2021/05/18 12:01:53;;;;;;;3.28;2.15;;;;;;;16.92;63.89;100334.41;4981300;28;20079;-81
2021/05/18 12:04:22;;;;;;;2.00;1.50;;;;;;;16.84;61.63;100348.16;4978019;28;20034;-81
2021/05/18 12:07:10;;;;;;;3.28;1.98;;;;;;;16.60;61.51;100351.06;4932296;28;20065;-81
2021/05/18 12:09:39;;;;;;;3.15;2.35;;;;;;;16.23;63.15;100354.72;4992526;23;20503;-86
2021/05/18 12:12:07;;;;;;;3.38;2.33;;;;;;;15.92;64.15;100351.78;4928828;29;20507;-85
2021/05/18 12:14:52;;;;;;;3.17;2.22;;;;;;;15.62;65.63;100357.59;4915024;29;20138;-84
2021/05/18 12:17:26;;;;;;;3.05;2.10;;;;;;;15.44;65.67;100364.59;4933287;28;20035;-85
2021/05/18 12:19:53;;;;;;;3.90;2.63;;;;;;;15.45;67.58;100366.31;4933077;28;20054;-85
2021/05/18 12:22:19;;;;;;;2.65;1.98;;;;;;;15.53;67.92;100370.44;4926898;29;20417;-84
2021/05/18 12:24:47;;;;;;;3.75;2.33;;;;;;;15.52;69.09;100366.91;4931064;28;20057;-85
2021/05/18 12:27:14;;;;;;;2.75;2.45;;;;;;;15.57;68.67;100364.06;4956085;28;20070;-84
2021/05/18 12:29:46;;;;;;;2.50;1.98;;;;;;;15.50;66.35;100374.09;4932604;29;20047;-85
2021/05/18 12:32:23;;;;;;;3.58;2.20;;;;;;;15.17;63.69;100368.50;4925867;28;20050;-84
2021/05/18 12:34:55;;;;;;;3.72;2.60;;;;;;;15.21;67.57;100373.59;4930539;28;20522;-84
2021/05/18 12:37:44;;;;;;;3.22;2.92;;;;;;;14.86;66.81;100380.44;4932615;28;20039;-85
2021/05/18 12:40:34;;;;;;;4.80;3.10;;;;;;;15.01;67.38;100384.25;4940913;28;20046;-83
2021/05/18 12:43:14;;;;;;;4.57;2.95;;;;;;;14.97;66.00;100382.69;4925952;29;20051;-84
2021/05/18 12:45:42;;;;;;;5.35;3.97;;;;;;;15.08;66.44;100382.19;4920172;28;20389;-85
2021/05/18 12:48:12;;;;;;;7.22;4.82;;;;;;;15.16;67.27;100390.72;4937507;29;20046;-83
2021/05/18 12:50:43;;;;;;;5.13;3.97;;;;;;;15.33;68.31;100390.84;4934087;29;20785;-84
2021/05/18 12:53:26;;;;;;;7.30;3.95;;;;;;;15.02;67.48;100393.97;4965451;28;20050;-82
2021/05/18 12:55:54;;;;;;;6.60;4.10;;;;;;;15.04;67.19;100394.75;4927753;28;20435;-85
2021/05/18 12:58:29;;;;;;;7.85;4.15;;;;;;;14.97;68.88;100390.66;4925884;28;20040;-84
2021/05/18 13:01:10;;;;;;;7.90;4.53;;;;;;;14.88;68.01;100391.00;4958840;28;20050;-85
2021/05/18 13:03:38;;;;;;;7.35;4.75;;;;;;;14.78;67.86;100384.38;4937333;28;20035;-84
2021/05/18 13:06:06;;;;;;;5.53;4.00;;;;;;;14.70;68.58;100387.34;4950918;28;20051;-84
2021/05/18 13:08:35;;;;;;;4.95;3.72;;;;;;;14.68;69.36;100393.66;4936598;28;20051;-85
2021/05/18 13:11:16;;;;;;;4.78;2.95;;;;;;;14.75;72.77;100397.81;4939607;28;20047;-84
2021/05/18 13:13:56;;;;;;;4.38;3.45;;;;;;;14.85;70.64;100386.69;4939345;29;20579;-83
2021/05/18 13:16:41;;;;;;;5.35;3.65;;;;;;;14.65;68.50;100394.66;4921034;28;20070;-85
2021/05/18 13:19:11;;;;;;;5.22;3.58;;;;;;;14.86;67.92;100392.88;4948123;28;20117;-85
2021/05/18 13:21:48;;;;;;;5.63;3.20;;;;;;;14.89;70.85;100387.47;4944994;28;20075;-84
2021/05/18 13:27:00;;;;;;;4.30;3.03;;;;;;;14.86;65.88;100388.44;4952868;28;20131;-85
2021/05/18 13:29:28;;;;;;;4.90;2.38;;;;;;;15.13;66.70;100401.47;4920682;29;20452;-84
2021/05/18 13:31:55;;;;;;;5.25;3.33;;;;;;;15.38;66.31;100396.81;4948818;28;20130;-85
2021/05/18 13:34:40;;;;;;;3.90;2.85;;;;;;;15.57;68.54;100388.88;4938560;28;20110;-84
2021/05/18 13:37:07;;;;;;;5.63;3.05;;;;;;;15.61;66.43;100392.28;4952465;28;20047;-84
2021/05/18 13:39:34;;;;;;;4.18;3.10;;;;;;;15.53;66.16;100389.94;4942031;28;20171;-82
2021/05/18 13:42:02;;;;;;;7.35;3.22;;;;;;;15.64;65.19;100398.34;4935042;28;20095;-84
2021/05/18 13:44:29;;;;;;;5.60;2.78;;;;;;;15.60;64.40;100393.19;4925136;28;20105;-83
2021/05/18 13:46:56;;;;;;;4.30;3.33;;;;;;;15.72;64.08;100393.53;4951842;28;20049;-82
2021/05/18 13:49:22;;;;;;;3.25;2.72;;;;;;;15.69;63.34;100395.47;4924017;28;20050;-83
2021/05/18 13:51:49;;;;;;;5.13;3.00;;;;;;;15.82;64.48;100398.44;4954617;28;20047;-84
2021/05/18 13:54:30;;;;;;;4.20;2.47;;;;;;;15.85;63.02;100395.63;4957197;28;20043;-84
2021/05/18 13:56:58;;;;;;;2.80;2.35;;;;;;;15.93;63.38;100385.47;4939667;28;20042;-85
2021/05/18 13:59:25;;;;;;;3.63;2.97;;;;;;;16.11;62.75;100395.25;4936044;28;20073;-84
2021/05/18 14:01:52;;;;;;;3.67;2.53;;;;;;;15.84;60.62;100383.25;4929876;28;20614;-86
2021/05/18 14:04:19;;;;;;;4.65;2.75;;;;;;;15.93;59.90;100382.81;4959482;28;20038;-86
2021/05/18 14:07:01;;;;;;;4.70;2.30;;;;;;;15.99;63.18;100387.88;4947462;29;20423;-85
2021/05/18 14:09:28;;;;;;;3.42;2.60;;;;;;;16.13;60.23;100389.84;4936838;29;20063;-86
2021/05/18 14:11:55;;;;;;;4.03;2.72;;;;;;;16.19;61.99;100381.56;4937323;28;20102;-84
2021/05/18 14:14:22;;;;;;;3.85;2.20;;;;;;;16.15;59.82;100385.34;4939600;28;20488;-87
2021/05/18 14:16:48;;;;;;;3.45;2.20;;;;;;;16.20;59.82;100384.16;4924904;28;20106;-87
2021/05/18 14:19:17;;;;;;;4.82;2.40;;;;;;;16.21;60.20;100382.34;4931027;28;20047;-86
2021/05/18 14:21:43;;;;;;;2.65;2.00;;;;;;;16.14;61.40;100391.56;4926194;28;20057;-86
2021/05/18 14:24:23;;;;;;;3.17;2.03;;;;;;;15.94;57.38;100384.53;4922094;29;20563;-85
2021/05/18 14:26:51;;;;;;;2.63;2.35;;;;;;;15.86;57.98;100381.38;4936788;29;20051;-86
2021/05/18 14:29:19;;;;;;;3.80;2.03;;;;;;;15.91;61.03;100387.34;4950208;28;20074;-87
2021/05/18 14:31:46;;;;;;;2.80;2.03;;;;;;;15.91;59.99;100384.69;4956296;28;20047;-83
2021/05/18 14:34:15;;;;;;;3.90;2.60;;;;;;;15.93;60.34;100389.00;4944724;28;20911;-85
2021/05/18 14:36:42;;;;;;;3.40;2.08;;;;;;;15.89;58.65;100386.53;4952085;28;20070;-85
2021/05/18 14:39:11;;;;;;;2.65;2.20;;;;;;;15.90;61.02;100382.97;4940367;28;20047;-87
2021/05/18 14:44:25;;;;;;;2.70;2.30;;;;;;;15.90;61.59;100381.16;4931959;28;20121;-84
2021/05/18 14:47:02;;;;;;;3.58;2.13;;;;;;;15.68;61.13;100377.75;4937015;28;20082;-85
2021/05/18 14:57:58;;;;;;;2.00;1.67;;;;;;;15.92;60.62;100392.63;4931891;28;20062;-85
2021/05/18 15:00:25;;;;;;;5.28;2.35;;;;;;;16.02;59.36;100393.91;4934017;28;20051;-84
2021/05/18 15:02:52;;;;;;;2.80;1.90;;;;;;;16.01;59.77;100391.31;4955402;28;20043;-84
2021/05/18 15:05:19;;;;;;;3.83;2.25;;;;;;;16.07;58.93;100395.50;4917365;28;20043;-83
2021/05/18 15:07:46;;;;;;;2.47;2.00;;;;;;;16.08;59.21;100394.56;4940927;28;20139;-85
2021/05/18 15:10:13;;;;;;;3.15;2.00;;;;;;;15.98;57.69;100395.00;4930861;28;20066;-85
2021/05/18 15:12:40;;;;;;;3.72;2.00;;;;;;;15.73;58.68;100392.59;4919200;28;20097;-85
2021/05/18 15:15:08;;;;;;;3.10;1.77;;;;;;;15.69;59.89;100401.66;4934012;28;20098;-84
2021/05/18 15:17:35;;;;;;;2.17;1.80;;;;;;;15.60;61.42;100396.72;4936055;28;20516;-84
2021/05/18 15:20:03;;;;;;;3.05;2.03;;;;;;;15.58;62.09;100393.28;4935945;28;20051;-85
2021/05/18 15:22:31;;;;;;;4.00;2.22;;;;;;;15.66;60.63;100395.63;4954067;28;20511;-85
2021/05/18 15:24:58;;;;;;;2.90;1.90;;;;;;;15.66;60.87;100395.63;4949976;28;20508;-84
2021/05/18 15:27:25;;;;;;;3.58;2.25;;;;;;;15.11;60.73;100401.53;4949911;28;20046;-86
2021/05/18 15:29:53;;;;;;;3.65;2.17;;;;;;;15.30;62.83;100392.75;4933397;28;20054;-84
2021/05/18 15:32:21;;;;;;;3.30;2.42;;;;;;;15.52;60.42;100392.66;4925092;28;20043;-85
2021/05/18 15:34:47;;;;;;;4.35;2.10;;;;;;;15.58;62.81;100393.28;4951900;28;20049;-84
2021/05/18 15:37:15;;;;;;;4.07;2.28;;;;;;;15.66;61.97;100395.63;4949546;28;20045;-84
2021/05/18 15:39:42;;;;;;;2.88;2.55;;;;;;;15.64;60.11;100397.50;4919572;28;20071;-84
2021/05/18 15:42:10;;;;;;;4.38;1.95;;;;;;;15.77;57.53;100391.50;4936938;28;20114;-84
2021/05/18 15:44:36;;;;;;;2.95;1.65;;;;;;;15.56;58.68;100391.63;4929000;28;20050;-85
2021/05/18 15:47:04;;;;;;;3.05;1.83;;;;;;;15.57;59.49;100391.53;4938374;28;20046;-84
2021/05/18 15:49:31;;;;;;;3.50;1.95;;;;;;;15.45;58.98;100392.94;4942276;28;20039;-84
2021/05/18 15:51:58;;;;;;;2.75;1.90;;;;;;;15.64;58.72;100401.03;4920175;29;20041;-85
2021/05/18 15:54:26;;;;;;;2.55;1.85;;;;;;;15.73;57.16;100397.94;4954475;28;20102;-84
2021/05/18 15:56:53;;;;;;;2.38;1.90;;;;;;;15.70;58.35;100397.19;4948892;28;20456;-84
2021/05/18 15:59:19;;;;;;;2.92;1.67;;;;;;;15.58;55.66;100398.59;4921693;28;20478;-85
2021/05/18 16:01:46;;;;;;;4.28;1.88;;;;;;;15.45;57.14;100397.41;4938433;28;20049;-85
2021/05/18 16:04:13;;;;;;;2.45;1.90;;;;;;;15.23;57.15;100404.63;4932803;29;20043;-84
2021/05/18 16:06:42;;;;;;;3.95;2.63;;;;;;;15.37;59.17;100404.88;4918025;28;20050;-84
2021/05/18 16:09:12;;;;;;;4.05;1.85;;;;;;;15.29;57.65;100404.34;4935104;29;20047;-84
2021/05/18 16:11:40;;;;;;;3.28;1.70;;;;;;;15.36;58.76;100403.13;4947045;28;20054;-82
2021/05/18 16:14:07;;;;;;;3.35;2.20;;;;;;;15.39;58.92;100408.34;4930815;28;20097;-84
2021/05/18 16:16:34;;;;;;;2.95;2.50;;;;;;;15.34;57.64;100411.19;4943931;28;20043;-86
2021/05/18 16:19:02;;;;;;;4.45;2.08;;;;;;;15.36;59.25;100411.13;4931853;28;20054;-84
2021/05/18 16:21:29;;;;;;;2.55;1.80;;;;;;;15.12;58.71;100407.72;4943525;28;20043;-85
2021/05/18 16:23:57;;;;;;;2.90;2.10;;;;;;;15.21;60.83;100408.19;4928140;28;20046;-85
2021/05/18 16:26:27;;;;;;;3.65;2.20;;;;;;;15.14;61.93;100404.09;4935141;29;20055;-86